Time;durP1;ratioP1;P1;durP2;ratioP2;P2;SDS_P1;SDS_P2;PMS_P1;PMS_P2;Temp;Humidity;BMP_temperature;BMP_pressure;BME280_temperature;BME280_humidity;BME280_pressure;Samples;Min_cycle;Max_cycle;Signal;HPM_P1;HPM_P2
2022/08/29 00:02:06;;;;;;;9.90;2.47;;;;;;;14.88;97.66;102090.09;5055968;28;20045;-57
2022/08/29 00:04:36;;;;;;;5.88;1.90;;;;;;;14.87;97.42;102091.06;5055765;28;20033;-53
2022/08/29 00:07:06;;;;;;;8.73;2.45;;;;;;;14.79;97.90;102080.09;5055714;28;20083;-54
2022/08/29 00:09:34;;;;;;;7.82;1.75;;;;;;;14.84;97.93;102082.44;5055468;28;20099;-53
2022/08/29 00:12:03;;;;;;;7.35;2.33;;;;;;;14.82;97.50;102085.19;5054454;28;20079;-54
2022/08/29 00:14:32;;;;;;;7.05;1.90;;;;;;;14.79;97.18;102080.09;5055732;28;20087;-55
2022/08/29 00:17:00;;;;;;;6.88;1.85;;;;;;;14.64;98.09;102081.03;5055678;28;20049;-52
2022/08/29 00:19:29;;;;;;;11.52;2.20;;;;;;;14.65;97.13;102082.75;5054008;28;20080;-52
2022/08/29 00:21:59;;;;;;;6.10;1.85;;;;;;;14.56;97.40;102084.16;5055156;28;20389;-57
2022/08/29 00:24:27;;;;;;;7.50;2.13;;;;;;;14.53;98.01;102076.38;5054920;28;20110;-56
2022/08/29 00:26:55;;;;;;;4.95;1.77;;;;;;;14.49;97.86;102083.69;5055090;28;20400;-55
2022/08/29 00:29:23;;;;;;;9.98;2.42;;;;;;;14.43;98.48;102073.47;5055541;28;20103;-54
2022/08/29 00:31:51;;;;;;;5.55;1.95;;;;;;;14.35;99.20;102079.22;5055721;28;20045;-54
2022/08/29 00:34:20;;;;;;;6.57;2.00;;;;;;;14.30;99.72;102080.47;5055142;28;20041;-54
2022/08/29 00:36:48;;;;;;;5.80;1.95;;;;;;;14.27;99.60;102078.84;5054567;28;20068;-53
2022/08/29 00:39:17;;;;;;;6.75;2.20;;;;;;;14.26;100.00;102081.59;5054528;28;20061;-54
2022/08/29 00:41:50;;;;;;;6.43;1.70;;;;;;;14.25;99.93;102080.75;5055334;28;20076;-58
2022/08/29 00:44:19;;;;;;;6.82;1.80;;;;;;;14.28;99.98;102090.31;5054791;28;20041;-59
2022/08/29 00:46:51;;;;;;;6.95;2.00;;;;;;;14.24;99.70;102084.34;5055378;28;20053;-53
2022/08/29 00:49:30;;;;;;;7.50;2.42;;;;;;;14.24;100.00;102084.34;5054519;28;20048;-55
2022/08/29 00:52:05;;;;;;;4.82;1.60;;;;;;;14.23;99.88;102082.63;5053828;28;20049;-51
2022/08/29 00:54:37;;;;;;;7.03;1.77;;;;;;;14.30;99.18;102093.69;5055383;28;20067;-61
2022/08/29 00:57:06;;;;;;;5.75;2.03;;;;;;;14.17;99.44;102086.50;5054690;28;20515;-57
2022/08/29 00:59:38;;;;;;;5.50;1.88;;;;;;;14.19;99.55;102081.13;5054649;28;20045;-52
2022/08/29 01:02:09;;;;;;;5.32;1.92;;;;;;;14.14;99.52;102084.06;5054526;28;20492;-58
2022/08/29 01:04:39;;;;;;;7.78;1.85;;;;;;;14.17;99.36;102083.84;5054788;28;20033;-56
2022/08/29 01:07:08;;;;;;;7.28;1.98;;;;;;;14.17;99.39;102089.16;5054991;28;20517;-57
2022/08/29 01:09:41;;;;;;;5.82;1.92;;;;;;;14.17;99.29;102089.16;5054766;28;20052;-57
2022/08/29 01:12:18;;;;;;;5.25;1.88;;;;;;;14.15;99.55;102087.53;5054324;28;20057;-53
2022/08/29 01:14:50;;;;;;;7.18;2.20;;;;;;;14.09;100.00;102088.75;5054523;28;20037;-57
2022/08/29 01:17:21;;;;;;;5.60;1.88;;;;;;;14.08;100.00;102083.56;5054451;28;20045;-53
2022/08/29 01:19:55;;;;;;;5.75;1.48;;;;;;;14.10;100.00;102081.69;5053009;28;20049;-57
2022/08/29 01:22:43;;;;;;;5.82;2.10;;;;;;;13.99;100.00;102090.28;5052983;28;20063;-55
2022/08/29 01:25:18;;;;;;;7.28;2.03;;;;;;;13.98;100.00;102076.19;5054294;28;20063;-57
2022/08/29 01:28:01;;;;;;;6.07;2.10;;;;;;;14.01;99.98;102081.28;5054292;28;20056;-55
2022/08/29 01:30:29;;;;;;;6.72;1.80;;;;;;;13.81;99.99;102084.25;5054189;28;20040;-54
2022/08/29 01:32:59;;;;;;;7.70;1.88;;;;;;;13.70;100.00;102084.91;5053928;28;20077;-56
2022/08/29 01:35:28;;;;;;;7.50;2.40;;;;;;;13.73;100.00;102089.16;5053907;28;20048;-52
2022/08/29 01:37:57;;;;;;;6.25;1.92;;;;;;;13.72;100.00;102084.84;5054183;28;20056;-56
2022/08/29 01:40:35;;;;;;;8.43;2.00;;;;;;;13.69;100.00;102091.16;5052772;28;20060;-52
2022/08/29 01:43:03;;;;;;;4.60;1.80;;;;;;;13.59;100.00;102093.44;5054338;28;20052;-58
2022/08/29 01:45:32;;;;;;;11.52;2.03;;;;;;;13.61;100.00;102093.38;5054346;28;20124;-56
2022/08/29 01:48:00;;;;;;;5.63;2.20;;;;;;;13.61;100.00;102090.75;5053933;28;20053;-52
2022/08/29 01:50:31;;;;;;;7.40;2.13;;;;;;;13.48;100.00;102099.38;5052673;28;20064;-50
2022/08/29 01:52:59;;;;;;;4.05;1.77;;;;;;;13.54;100.00;102098.19;5053617;28;20052;-56
2022/08/29 01:55:29;;;;;;;6.32;2.20;;;;;;;13.57;100.00;102095.34;5053432;28;20049;-54
2022/08/29 01:57:57;;;;;;;5.78;1.73;;;;;;;13.53;100.00;102097.31;5053663;28;20053;-56
2022/08/29 02:00:25;;;;;;;6.90;2.22;;;;;;;13.52;100.00;102097.41;5053517;28;20496;-52
2022/08/29 02:02:55;;;;;;;5.75;2.17;;;;;;;13.59;100.00;102085.53;5053563;28;20059;-51
2022/08/29 02:05:24;;;;;;;8.25;1.95;;;;;;;13.60;100.00;102083.75;5053273;28;20414;-54
2022/08/29 02:07:52;;;;;;;8.60;1.98;;;;;;;13.54;100.00;102084.97;5053711;28;20381;-54
2022/08/29 02:10:21;;;;;;;10.10;2.10;;;;;;;13.61;100.00;102088.09;5052834;28;20135;-56
2022/08/29 02:12:52;;;;;;;6.35;2.08;;;;;;;13.61;100.00;102088.94;5053529;28;20056;-57
2022/08/29 02:15:20;;;;;;;5.40;2.22;;;;;;;13.58;100.00;102091.78;5053193;28;20049;-55
2022/08/29 02:17:49;;;;;;;7.68;2.10;;;;;;;13.35;100.00;102091.28;5051905;28;20045;-53
2022/08/29 02:20:17;;;;;;;4.15;1.92;;;;;;;13.30;100.00;102093.31;5053158;28;20431;-54
2022/08/29 02:22:50;;;;;;;6.07;1.73;;;;;;;13.31;100.00;102099.47;5052973;28;20107;-56
2022/08/29 02:25:46;;;;;;;6.40;2.03;;;;;;;13.32;100.00;102099.38;5053584;28;20127;-51
2022/08/29 02:28:19;;;;;;;5.25;1.88;;;;;;;13.28;100.00;102097.84;5052161;28;20817;-51
2022/08/29 02:30:51;;;;;;;7.20;2.20;;;;;;;13.25;100.00;102090.09;5053746;28;20056;-55
2022/08/29 02:33:25;;;;;;;6.95;2.17;;;;;;;13.24;100.00;102091.03;5052777;28;20045;-53
2022/08/29 02:35:55;;;;;;;5.28;2.10;;;;;;;13.20;100.00;102092.16;5053328;28;20087;-53
2022/08/29 02:38:25;;;;;;;6.93;1.92;;;;;;;13.16;100.00;102082.69;5053255;28;20510;-55
2022/08/29 02:40:54;;;;;;;7.72;2.25;;;;;;;13.15;100.00;102081.81;5052485;28;20049;-54
2022/08/29 02:43:25;;;;;;;7.35;2.08;;;;;;;13.23;100.00;102089.31;5052978;28;20565;-55
2022/08/29 02:45:55;;;;;;;6.30;2.03;;;;;;;13.22;100.00;102087.59;5052752;28;20052;-50
2022/08/29 02:48:24;;;;;;;5.25;2.05;;;;;;;13.14;100.00;102092.47;5052749;28;20044;-53
2022/08/29 02:50:54;;;;;;;9.65;2.75;;;;;;;13.17;100.00;102098.44;5052752;28;20048;-53
2022/08/29 02:53:25;;;;;;;5.03;1.88;;;;;;;13.13;100.00;102096.91;5053153;28;20103;-56
2022/08/29 02:55:53;;;;;;;8.65;2.40;;;;;;;12.98;100.00;102103.91;5052551;28;20041;-53
2022/08/29 02:58:23;;;;;;;6.30;2.05;;;;;;;12.96;100.00;102095.19;5052436;28;20049;-54
2022/08/29 03:00:53;;;;;;;6.63;2.30;;;;;;;12.98;100.00;102088.06;5052395;28;20106;-57
2022/08/29 03:03:22;;;;;;;7.70;2.15;;;;;;;13.01;100.00;102092.31;5051369;28;20053;-57
2022/08/29 03:05:50;;;;;;;4.90;2.05;;;;;;;12.93;100.00;102098.03;5052612;28;20045;-56
2022/08/29 03:08:18;;;;;;;6.53;2.17;;;;;;;12.88;100.00;102097.41;5051298;28;20102;-56
2022/08/29 03:10:46;;;;;;;5.88;2.22;;;;;;;12.84;100.00;102090.59;5052579;28;20055;-51
2022/08/29 03:13:15;;;;;;;7.78;2.45;;;;;;;12.94;100.00;102094.44;5052401;28;20068;-53
2022/08/29 03:15:43;;;;;;;6.88;1.90;;;;;;;12.91;100.00;102094.63;5052530;28;20049;-52
2022/08/29 03:18:13;;;;;;;6.90;2.67;;;;;;;12.87;100.00;102085.19;5052563;28;20045;-55
2022/08/29 03:20:42;;;;;;;6.47;2.15;;;;;;;12.75;100.00;102086.69;5051339;28;20511;-55
2022/08/29 03:23:10;;;;;;;5.55;2.38;;;;;;;12.79;100.00;102092.66;5052506;28;20048;-56
2022/08/29 03:25:38;;;;;;;5.60;1.95;;;;;;;12.79;100.00;102085.59;5052198;28;20061;-54
2022/08/29 03:28:07;;;;;;;9.85;2.38;;;;;;;12.81;100.00;102085.50;5052110;28;20049;-53
2022/08/29 03:30:35;;;;;;;6.68;2.20;;;;;;;12.78;100.00;102088.31;5052356;28;20045;-52
2022/08/29 03:33:04;;;;;;;7.32;2.03;;;;;;;12.78;100.00;102088.31;5052211;28;20056;-50
2022/08/29 03:35:41;;;;;;;5.60;2.00;;;;;;;12.71;100.00;102090.44;5052330;28;20094;-51
2022/08/29 03:38:09;;;;;;;6.95;2.50;;;;;;;12.58;100.00;102081.47;5052411;28;20522;-55
2022/08/29 03:40:40;;;;;;;6.80;2.25;;;;;;;12.60;100.00;102083.09;5052903;28;20049;-58
2022/08/29 03:43:09;;;;;;;6.60;2.25;;;;;;;12.58;100.00;102077.03;5052886;28;20059;-53
2022/08/29 03:45:38;;;;;;;6.53;2.30;;;;;;;12.53;100.00;102076.44;5052777;28;20048;-56
2022/08/29 03:48:06;;;;;;;8.68;2.97;;;;;;;12.49;100.00;102074.91;5052331;28;20546;-56
2022/08/29 03:50:34;;;;;;;5.22;2.28;;;;;;;12.52;100.00;102066.81;5052076;28;20033;-58
2022/08/29 03:53:04;;;;;;;10.50;2.50;;;;;;;12.47;100.00;102072.31;5051428;28;20071;-54
2022/08/29 03:55:32;;;;;;;8.60;2.40;;;;;;;12.47;100.00;102069.69;5050213;28;20049;-53
2022/08/29 03:58:00;;;;;;;6.68;2.30;;;;;;;12.55;100.00;102071.09;5051035;28;20102;-53
2022/08/29 04:00:28;;;;;;;7.95;2.50;;;;;;;12.62;100.00;102081.22;5051200;28;20045;-54
2022/08/29 04:02:57;;;;;;;7.82;2.50;;;;;;;12.54;100.00;102075.50;5051599;28;20385;-55
2022/08/29 04:05:25;;;;;;;5.15;2.25;;;;;;;12.57;100.00;102075.34;5051942;28;20045;-54
2022/08/29 04:07:57;;;;;;;8.65;2.60;;;;;;;12.62;100.00;102077.72;5051749;28;20037;-50
2022/08/29 04:10:29;;;;;;;7.78;2.60;;;;;;;12.61;100.00;102078.66;5052209;28;20491;-50
2022/08/29 04:12:58;;;;;;;7.20;2.42;;;;;;;12.60;100.00;102076.97;5050729;28;20061;-54
2022/08/29 04:15:28;;;;;;;6.20;2.17;;;;;;;12.66;100.00;102081.91;5052047;28;20067;-56
2022/08/29 04:17:58;;;;;;;8.50;2.67;;;;;;;12.70;100.00;102070.25;5051780;28;20033;-51
2022/08/29 04:20:29;;;;;;;8.82;2.83;;;;;;;12.70;100.00;102078.16;5051892;28;20055;-53
2022/08/29 04:22:58;;;;;;;9.32;2.78;;;;;;;12.73;100.00;102087.72;5051731;28;20052;-51
2022/08/29 04:25:34;;;;;;;8.52;2.97;;;;;;;12.80;100.00;102089.06;5051620;28;20128;-50
2022/08/29 04:28:06;;;;;;;9.35;2.95;;;;;;;12.80;100.00;102086.44;5051263;28;20060;-57
2022/08/29 04:30:36;;;;;;;8.20;2.97;;;;;;;12.84;100.00;102078.28;5051753;28;20094;-57
2022/08/29 04:33:05;;;;;;;10.73;3.55;;;;;;;12.94;100.00;102081.25;5054122;28;20472;-53
2022/08/29 04:35:34;;;;;;;8.80;2.85;;;;;;;12.92;100.00;102080.47;5055251;28;20059;-56
2022/08/29 04:38:02;;;;;;;7.45;3.28;;;;;;;12.97;100.00;102083.72;5055407;28;20037;-51
2022/08/29 04:40:32;;;;;;;10.23;3.47;;;;;;;12.94;100.00;102075.97;5055025;28;20064;-54
2022/08/29 04:43:03;;;;;;;8.23;3.25;;;;;;;12.95;100.00;102082.09;5055445;28;20041;-50
2022/08/29 04:45:32;;;;;;;8.77;3.40;;;;;;;13.09;100.00;102082.19;5054846;28;20462;-51
2022/08/29 04:48:01;;;;;;;8.05;2.92;;;;;;;13.24;100.00;102083.09;5054600;28;20545;-57
2022/08/29 04:50:32;;;;;;;12.90;3.35;;;;;;;13.17;100.00;102077.31;5053665;28;20053;-52
2022/08/29 04:53:01;;;;;;;8.07;3.10;;;;;;;13.22;100.00;102077.03;5054209;28;20045;-53
2022/08/29 04:55:30;;;;;;;9.35;3.13;;;;;;;13.28;100.00;102075.84;5055193;28;20489;-53
2022/08/29 04:58:00;;;;;;;9.23;3.40;;;;;;;13.19;100.00;102077.22;5054737;28;20041;-52
2022/08/29 05:00:30;;;;;;;;;;;;;;;13.22;100.00;102090.25;5055469;28;20049;-52
2022/08/29 05:02:58;;;;;;;8.40;3.17;;;;;;;13.16;100.00;102087.97;5053649;28;19928;-56
2022/08/29 05:05:27;;;;;;;8.60;3.45;;;;;;;13.12;100.00;102095.19;5054685;28;20091;-56
2022/08/29 05:07:55;;;;;;;6.35;3.05;;;;;;;13.21;100.00;102090.34;5054798;28;20119;-56
2022/08/29 05:10:25;;;;;;;7.97;3.28;;;;;;;13.27;100.00;102088.22;5054727;28;20052;-56
2022/08/29 05:12:53;;;;;;;8.07;3.33;;;;;;;13.31;100.00;102089.72;5054743;28;20049;-53
2022/08/29 05:15:22;;;;;;;8.43;3.00;;;;;;;13.39;100.00;102085.81;5053273;28;20052;-55
2022/08/29 05:17:52;;;;;;;8.82;3.00;;;;;;;13.41;100.00;102083.97;5054299;28;20037;-51
2022/08/29 05:20:20;;;;;;;9.85;3.30;;;;;;;13.42;100.00;102088.31;5052752;28;20119;-54
2022/08/29 05:22:50;;;;;;;9.65;3.50;;;;;;;13.50;100.00;102094.00;5053337;28;20056;-51
2022/08/29 05:25:18;;;;;;;8.90;3.40;;;;;;;13.42;100.00;102093.59;5054730;28;20404;-54
2022/08/29 05:27:46;;;;;;;7.45;3.28;;;;;;;13.42;100.00;102085.69;5054372;28;20392;-52
2022/08/29 05:30:16;;;;;;;9.73;3.45;;;;;;;13.41;100.00;102095.38;5053291;28;20048;-56
2022/08/29 05:33:03;;;;;;;8.40;3.20;;;;;;;13.44;100.00;102094.34;5054340;28;20073;-57
2022/08/29 05:35:32;;;;;;;8.05;3.67;;;;;;;13.56;100.00;102100.72;5054078;28;20053;-57
2022/08/29 05:38:02;;;;;;;8.48;3.05;;;;;;;13.62;100.00;102098.59;5053723;28;20045;-51
2022/08/29 05:40:37;;;;;;;9.10;3.40;;;;;;;13.68;100.00;102100.00;5053722;28;20052;-50
2022/08/29 05:43:06;;;;;;;9.32;3.55;;;;;;;13.66;100.00;102089.53;5053340;28;20374;-51
2022/08/29 05:45:34;;;;;;;9.90;3.75;;;;;;;13.71;100.00;102091.06;5053065;28;20427;-53
2022/08/29 05:48:06;;;;;;;8.73;3.78;;;;;;;13.79;100.00;102094.09;5053729;28;20057;-53
2022/08/29 05:50:40;;;;;;;9.52;3.53;;;;;;;13.73;100.00;102097.97;5053682;28;20045;-52
2022/08/29 05:53:10;;;;;;;9.07;3.78;;;;;;;13.80;100.00;102101.09;5053140;28;20044;-50
2022/08/29 05:55:40;;;;;;;9.63;3.55;;;;;;;13.80;100.00;102098.44;5052394;28;20136;-51
2022/08/29 05:58:08;;;;;;;12.30;4.05;;;;;;;13.89;100.00;102097.03;5053290;28;20496;-58
2022/08/29 06:00:39;;;;;;;9.60;3.45;;;;;;;13.96;100.00;102107.19;5053599;28;20404;-55
2022/08/29 06:03:09;;;;;;;11.10;4.47;;;;;;;14.02;100.00;102103.31;5053497;28;20055;-53
2022/08/29 06:05:38;;;;;;;11.93;4.22;;;;;;;14.11;100.00;102108.06;5053463;28;20085;-51
2022/08/29 06:08:08;;;;;;;9.95;3.58;;;;;;;14.13;100.00;102115.88;5053413;28;20107;-54
2022/08/29 06:10:41;;;;;;;9.73;4.00;;;;;;;14.19;99.78;102111.09;5053387;28;20056;-57
2022/08/29 06:13:09;;;;;;;14.18;4.05;;;;;;;14.30;100.00;102110.44;5053227;28;20504;-58
2022/08/29 06:15:37;;;;;;;12.23;3.67;;;;;;;14.38;100.00;102109.94;5053727;28;20114;-54
2022/08/29 06:18:06;;;;;;;9.95;3.60;;;;;;;14.50;100.00;102111.00;5053770;28;20119;-55
2022/08/29 06:20:37;;;;;;;11.63;3.92;;;;;;;14.57;100.00;102107.00;5053501;28;20464;-52
2022/08/29 06:23:06;;;;;;;9.68;3.90;;;;;;;14.78;99.53;102112.81;5053552;28;20132;-52
2022/08/29 06:25:35;;;;;;;11.90;4.00;;;;;;;14.82;98.66;102121.41;5053093;28;20064;-54
2022/08/29 06:28:07;;;;;;;9.77;4.10;;;;;;;14.88;99.68;102128.97;5052620;28;20041;-57
2022/08/29 06:30:36;;;;;;;16.15;4.97;;;;;;;14.98;99.14;102129.22;5052623;28;20099;-56
2022/08/29 06:33:04;;;;;;;15.30;4.10;;;;;;;15.08;97.21;102119.75;5052635;28;20106;-58
2022/08/29 06:35:32;;;;;;;12.30;3.92;;;;;;;15.17;96.61;102115.66;5051767;28;20069;-54
2022/08/29 06:38:01;;;;;;;9.77;3.17;;;;;;;15.24;94.36;102111.66;5052911;28;20041;-57
2022/08/29 06:40:29;;;;;;;10.63;3.90;;;;;;;15.33;93.20;102123.47;5053073;28;20057;-57
2022/08/29 06:42:58;;;;;;;13.70;4.10;;;;;;;15.43;93.68;102123.72;5052942;28;20579;-52
2022/08/29 06:45:27;;;;;;;9.75;3.60;;;;;;;15.51;91.47;102121.41;5052377;28;20041;-52
2022/08/29 06:47:55;;;;;;;10.93;3.45;;;;;;;15.60;89.23;102123.47;5050853;28;20139;-57
2022/08/29 06:50:23;;;;;;;8.63;3.22;;;;;;;15.71;89.79;102131.53;5052161;28;20048;-58
2022/08/29 06:52:51;;;;;;;9.32;3.45;;;;;;;15.79;89.07;102135.47;5052380;28;20071;-58
2022/08/29 06:55:23;;;;;;;10.82;3.10;;;;;;;15.88;87.90;102132.25;5052462;28;20099;-58
2022/08/29 06:57:53;;;;;;;9.82;3.22;;;;;;;15.97;87.46;102134.28;5052566;28;20572;-55
2022/08/29 07:00:22;;;;;;;10.13;3.10;;;;;;;16.09;86.49;102129.09;5052538;28;20051;-56
2022/08/29 07:02:52;;;;;;;11.30;3.72;;;;;;;16.19;86.45;102133.66;5052671;28;20037;-56
2022/08/29 07:05:22;;;;;;;12.18;3.47;;;;;;;16.29;84.82;102136.56;5052724;28;20045;-58
2022/08/29 07:07:51;;;;;;;11.05;3.83;;;;;;;16.35;84.01;102138.75;5052662;28;20037;-57
2022/08/29 07:10:19;;;;;;;8.48;3.00;;;;;;;16.44;84.30;102142.56;5052471;28;20049;-53
2022/08/29 07:12:52;;;;;;;11.77;3.45;;;;;;;16.59;82.79;102137.16;5052451;28;20055;-55
2022/08/29 07:15:21;;;;;;;8.98;2.85;;;;;;;16.66;81.19;102139.28;5052428;28;20523;-55
2022/08/29 07:17:50;;;;;;;10.57;3.15;;;;;;;16.75;81.37;102137.78;5052400;28;20120;-54
2022/08/29 07:20:23;;;;;;;8.13;3.35;;;;;;;16.83;80.17;102135.41;5052376;28;20068;-55
2022/08/29 07:22:51;;;;;;;13.98;3.08;;;;;;;16.94;80.48;102140.00;5051095;28;20049;-55
2022/08/29 07:25:20;;;;;;;8.02;3.00;;;;;;;17.00;78.84;102144.88;5052245;28;20518;-55
2022/08/29 07:27:49;;;;;;;9.15;2.95;;;;;;;17.15;79.93;102148.25;5052340;28;20037;-58
2022/08/29 07:30:21;;;;;;;11.93;2.97;;;;;;;17.19;77.73;102146.19;5050877;28;20054;-58
2022/08/29 07:32:50;;;;;;;8.20;2.63;;;;;;;17.31;77.08;102145.28;5052036;28;20411;-58
2022/08/29 07:35:19;;;;;;;8.35;2.80;;;;;;;17.45;76.60;102140.78;5052241;28;20442;-56
2022/08/29 07:37:57;;;;;;;7.97;2.92;;;;;;;17.62;75.33;102150.19;5051929;28;20063;-56
2022/08/29 07:40:26;;;;;;;7.55;2.63;;;;;;;17.70;75.29;102145.13;5050483;28;20432;-59
2022/08/29 07:42:54;;;;;;;8.80;2.95;;;;;;;17.85;76.37;102140.47;5052138;28;20045;-58
2022/08/29 07:45:24;;;;;;;8.60;2.67;;;;;;;17.98;74.80;102141.22;5052048;28;20049;-59
2022/08/29 07:47:52;;;;;;;6.70;2.47;;;;;;;18.07;75.08;102142.38;5052068;28;20503;-58
2022/08/29 07:50:20;;;;;;;7.90;2.55;;;;;;;18.13;77.41;102139.22;5051899;28;20167;-58
2022/08/29 07:52:48;;;;;;;11.50;2.80;;;;;;;18.31;74.62;102139.63;5052523;28;20128;-59
2022/08/29 07:55:16;;;;;;;7.30;2.35;;;;;;;18.40;75.27;102148.69;5051934;28;20053;-58
2022/08/29 07:57:45;;;;;;;9.10;2.45;;;;;;;18.58;75.69;102141.06;5052001;28;20072;-58
2022/08/29 08:00:14;;;;;;;8.40;2.40;;;;;;;18.80;74.38;102145.56;5051898;28;20055;-58
2022/08/29 08:02:43;;;;;;;7.38;2.38;;;;;;;18.89;75.12;102150.16;5051842;28;20041;-56
2022/08/29 08:05:12;;;;;;;6.88;2.28;;;;;;;19.03;75.23;102145.56;5051982;28;20488;-57
2022/08/29 08:07:41;;;;;;;9.55;2.55;;;;;;;19.12;74.41;102155.47;5052178;28;20053;-58
2022/08/29 08:10:10;;;;;;;7.50;2.30;;;;;;;19.17;74.35;102147.09;5055685;28;20047;-59
2022/08/29 08:12:39;;;;;;;7.55;2.10;;;;;;;19.35;74.27;102148.28;5055807;28;20427;-56
2022/08/29 08:15:08;;;;;;;8.48;2.60;;;;;;;19.43;74.28;102140.47;5054376;28;20053;-58
2022/08/29 08:17:36;;;;;;;6.65;2.38;;;;;;;19.55;72.96;102143.09;5055581;28;20065;-58
2022/08/29 08:20:12;;;;;;;12.30;2.63;;;;;;;19.69;72.42;102142.81;5055372;28;20052;-59
2022/08/29 08:22:41;;;;;;;10.25;2.33;;;;;;;19.68;71.24;102146.44;5055496;28;20396;-59
2022/08/29 08:25:09;;;;;;;9.02;2.65;;;;;;;19.72;71.52;102142.53;5055407;28;20051;-59
2022/08/29 08:27:38;;;;;;;7.57;2.58;;;;;;;19.62;69.98;102146.09;5055303;28;20053;-58
2022/08/29 08:30:11;;;;;;;9.68;2.28;;;;;;;19.84;68.74;102145.22;5055125;28;20048;-58
2022/08/29 08:32:40;;;;;;;8.50;2.40;;;;;;;20.09;69.96;102133.28;5055310;28;20076;-58
2022/08/29 08:35:16;;;;;;;8.35;2.35;;;;;;;20.12;67.81;102138.34;5055033;28;20059;-60
2022/08/29 08:37:49;;;;;;;6.07;2.38;;;;;;;20.33;67.86;102141.00;5055091;28;20044;-58
2022/08/29 08:40:21;;;;;;;8.43;2.30;;;;;;;20.35;66.08;102135.53;5055006;28;20053;-58
2022/08/29 08:42:50;;;;;;;7.03;2.30;;;;;;;20.51;66.63;102137.72;5055335;28;20464;-59
2022/08/29 08:45:21;;;;;;;7.38;2.15;;;;;;;20.57;65.06;102145.19;5054566;28;20057;-59
2022/08/29 08:47:52;;;;;;;5.97;2.28;;;;;;;20.56;61.84;102136.31;5054688;28;20518;-59
2022/08/29 08:50:31;;;;;;;6.22;2.25;;;;;;;20.57;63.64;102138.03;5054355;28;20381;-60
2022/08/29 08:53:06;;;;;;;7.60;2.45;;;;;;;20.65;63.08;102139.16;5052858;28;20377;-59
2022/08/29 08:55:41;;;;;;;8.07;2.40;;;;;;;20.70;60.07;102137.81;5054471;28;20057;-58
2022/08/29 08:58:22;;;;;;;7.35;2.67;;;;;;;20.60;60.12;102142.22;5054498;28;20049;-57
2022/08/29 09:00:59;;;;;;;7.38;2.45;;;;;;;20.61;61.05;102138.59;5054452;28;20056;-57
2022/08/29 09:04:05;;;;;;;6.18;2.30;;;;;;;20.71;58.67;102135.97;5054505;28;20064;-58
2022/08/29 09:06:49;;;;;;;9.57;2.78;;;;;;;20.77;59.28;102132.78;5054461;28;20052;-58
2022/08/29 09:09:29;;;;;;;9.40;2.25;;;;;;;21.09;60.35;102131.72;5051278;28;20483;-60
2022/08/29 09:12:08;;;;;;;7.82;2.72;;;;;;;21.08;59.09;102124.69;5047845;28;20049;-60
2022/08/29 09:14:57;;;;;;;6.45;2.25;;;;;;;21.24;58.67;102129.47;5052907;28;20682;-59
2022/08/29 09:17:31;;;;;;;6.63;2.17;;;;;;;21.29;57.17;102127.25;5052746;28;20140;-58
2022/08/29 09:20:09;;;;;;;5.60;2.10;;;;;;;21.41;57.15;102131.47;5054113;28;20087;-58
2022/08/29 09:22:42;;;;;;;8.35;2.65;;;;;;;21.36;58.24;102132.88;5054229;28;20045;-58
2022/08/29 09:25:12;;;;;;;7.25;2.10;;;;;;;21.36;59.29;102141.75;5054231;28;20041;-59
2022/08/29 09:27:40;;;;;;;7.25;2.05;;;;;;;21.27;60.62;102134.56;5054481;28;20048;-58
2022/08/29 09:30:11;;;;;;;8.63;2.38;;;;;;;21.33;60.91;102134.00;5054333;28;20041;-58
2022/08/29 09:32:54;;;;;;;7.90;2.65;;;;;;;21.47;59.03;102135.41;5052730;28;20114;-57
2022/08/29 09:35:26;;;;;;;6.63;2.17;;;;;;;21.42;59.64;102143.88;5054214;28;20045;-58
2022/08/29 09:38:04;;;;;;;8.98;2.53;;;;;;;21.60;59.30;102136.00;5053919;28;20049;-59
2022/08/29 09:40:48;;;;;;;7.43;2.58;;;;;;;21.94;59.43;102140.06;5053685;28;20527;-60
2022/08/29 09:43:20;;;;;;;6.78;2.40;;;;;;;22.27;56.95;102135.19;5053317;28;20053;-59
2022/08/29 09:46:15;;;;;;;9.02;2.58;;;;;;;22.39;56.72;102133.22;5052992;28;20049;-59
2022/08/29 09:48:46;;;;;;;8.38;2.22;;;;;;;22.58;56.18;102134.97;5053199;28;20063;-60
2022/08/29 09:51:25;;;;;;;7.20;2.65;;;;;;;22.49;57.00;102125.97;5053476;28;20447;-60
2022/08/29 09:54:12;;;;;;;6.95;1.92;;;;;;;22.41;58.21;102133.91;5053418;28;20051;-59
2022/08/29 09:56:48;;;;;;;8.20;2.53;;;;;;;22.47;58.25;102132.47;5053231;28;20052;-60
2022/08/29 09:59:22;;;;;;;11.13;2.35;;;;;;;22.40;57.71;102130.41;5053211;28;20667;-60
2022/08/29 10:01:50;;;;;;;6.07;2.25;;;;;;;22.32;57.13;102138.28;5053133;28;20496;-60
2022/08/29 10:04:38;;;;;;;7.70;2.20;;;;;;;22.57;57.02;102138.66;5053343;28;20053;-60
2022/08/29 10:07:10;;;;;;;7.88;2.53;;;;;;;22.35;56.25;102124.63;5053056;28;20045;-59
2022/08/29 10:09:40;;;;;;;6.63;2.67;;;;;;;22.32;56.55;102135.63;5052926;28;20059;-60
2022/08/29 10:12:14;;;;;;;5.82;2.17;;;;;;;22.21;55.71;102125.06;5052747;28;20751;-60
2022/08/29 10:14:47;;;;;;;6.85;2.25;;;;;;;22.06;57.02;102127.34;5053161;28;20041;-58
2022/08/29 10:20:10;;;;;;;8.52;2.50;;;;;;;21.81;57.64;102134.16;5052790;28;20488;-59
2022/08/29 10:22:42;;;;;;;6.50;2.00;;;;;;;22.04;57.04;102140.88;5052690;28;20049;-60
2022/08/29 10:25:19;;;;;;;7.60;2.47;;;;;;;21.92;57.96;102134.88;5052847;28;20535;-59
2022/08/29 10:27:54;;;;;;;5.50;2.15;;;;;;;21.88;58.67;102135.28;5052725;28;20052;-60
2022/08/29 10:30:26;;;;;;;7.35;1.92;;;;;;;21.84;59.81;102129.38;5052306;28;20041;-58
2022/08/29 10:33:10;;;;;;;8.23;2.67;;;;;;;22.05;59.27;102123.84;5052730;28;20052;-60
2022/08/29 10:35:47;;;;;;;7.07;2.40;;;;;;;22.05;57.99;102120.31;5052518;28;20056;-60
2022/08/29 10:38:35;;;;;;;6.20;2.00;;;;;;;22.03;58.55;102124.97;5054490;28;20048;-60
2022/08/29 10:41:11;;;;;;;7.32;2.40;;;;;;;22.14;59.87;102130.13;5072256;28;20060;-61
2022/08/29 10:43:41;;;;;;;7.72;2.10;;;;;;;22.38;59.55;102128.84;5071065;28;20238;-59
2022/08/29 10:46:31;;;;;;;8.50;2.67;;;;;;;22.66;58.55;102124.34;5072174;28;20088;-60
2022/08/29 10:49:07;;;;;;;6.63;1.90;;;;;;;23.16;56.98;102128.44;5072201;28;20041;-61
2022/08/29 10:51:45;;;;;;;8.07;2.40;;;;;;;22.98;58.63;102115.00;5072460;28;20040;-62
2022/08/29 10:54:26;;;;;;;5.18;2.17;;;;;;;22.93;58.27;102128.00;5072020;28;20072;-61
2022/08/29 10:56:57;;;;;;;8.43;2.17;;;;;;;22.99;57.64;102122.03;5072169;28;20051;-57
2022/08/29 10:59:41;;;;;;;7.72;2.42;;;;;;;23.45;58.06;102122.00;5072144;28;20048;-57
2022/08/29 11:02:17;;;;;;;11.93;3.00;;;;;;;23.61;56.29;102124.00;5072080;28;20051;-61
2022/08/29 11:04:50;;;;;;;10.10;2.70;;;;;;;23.76;55.96;102124.28;5072014;28;20040;-61
2022/08/29 11:07:25;;;;;;;7.15;2.10;;;;;;;24.08;54.94;102112.94;5072148;28;20055;-60
2022/08/29 11:09:57;;;;;;;5.53;2.20;;;;;;;24.16;53.82;102116.69;5071739;28;20050;-58
2022/08/29 11:12:39;;;;;;;6.72;2.30;;;;;;;24.27;53.91;102119.94;5070213;28;20072;-61
2022/08/29 11:15:18;;;;;;;6.32;2.28;;;;;;;23.87;54.77;102120.50;5071913;28;20040;-58
2022/08/29 11:17:53;;;;;;;5.57;2.00;;;;;;;23.62;55.17;102123.00;5071974;28;20448;-62
2022/08/29 11:20:26;;;;;;;6.63;2.20;;;;;;;23.73;55.30;102117.38;5071899;28;20036;-59
2022/08/29 11:22:58;;;;;;;;;;;;;;;23.64;54.44;102104.88;5072327;28;20037;-59
2022/08/29 11:25:27;;;;;;;7.22;2.25;;;;;;;23.88;54.46;102098.03;5070389;28;19927;-61
2022/08/29 11:28:07;;;;;;;6.85;2.13;;;;;;;24.30;56.21;102090.06;5071492;28;20155;-60
2022/08/29 11:30:42;;;;;;;5.85;2.10;;;;;;;24.82;53.02;102087.44;5071776;28;20529;-60
2022/08/29 11:33:28;;;;;;;6.65;2.47;;;;;;;25.44;49.68;102082.47;5071386;28;20434;-61
2022/08/29 11:36:16;;;;;;;6.38;2.00;;;;;;;25.74;49.98;102080.09;5072086;28;20056;-60
2022/08/29 11:39:25;;;;;;;7.50;2.17;;;;;;;25.90;50.51;102081.91;5104477;28;20064;-62
2022/08/29 11:41:56;;;;;;;6.25;2.47;;;;;;;26.23;48.22;102072.91;5066000;28;20439;-59
2022/08/29 11:44:33;;;;;;;6.65;2.38;;;;;;;26.24;47.15;102072.72;5076050;28;20430;-61
2022/08/29 11:47:01;;;;;;;7.35;2.50;;;;;;;26.34;45.86;102067.13;5075847;28;20121;-60